• Join FlightAware (Why Join?)
  • Login
  • US Flag 
12:24PM EST


 

Airport Tracker/Info


-or-


 

Live Flight TrackerFlight Track Log ✈ XOJ578 ✈ 16-Jun-2013 ✈ KTEB - KSMO

Flight Track Log - Related Links

Times and Time Zones

All times are in EDT time to prevent confusion due to time zone crossing. See the XOJ578 flight status page for this flight to view local times or setup timezone preferences in your user account.

Time Position Orientation Groundspeed Altitude Reporting Facility
EDT Latitude Longitude Course Direction KTS MPH feet Rate Location/Type
12:49PM 40.8333 -74.1000 264° West 156 180 1,500  Level New York TRACON
12:51PM 40.8206 -74.2564 264° West 200 230 5,000 2,040 Climbing New York Center
12:52PM 40.8222 -74.3414 272° West 234 269 8,400 2,880 Climbing New York Center
12:53PM 40.8250 -74.4511 272° West 265 305 10,900 2,700 Climbing New York Center
12:54PM 40.8406 -74.5536 281° West 306 352 13,900 2,940 Climbing New York Center
12:55PM 40.8553 -74.6778 279° West 317 365 16,800 2,340 Climbing New York Center
12:56PM 40.8603 -74.7822 274° West 317 365 18,600 1,860 Climbing New York Center
12:57PM 40.8458 -74.8967 261° West 311 358 20,600 1,980 Climbing New York Center
12:58PM 40.8308 -75.0219 261° West 324 373 22,600 1,920 Climbing New York Center
12:59PM 40.8158 -75.1497 261° West 347 399 24,500 1,920 Climbing New York Center
01:00PM 40.7936 -75.2936 259° West 367 422 26,500 1,980 Climbing New York Center
01:01PM 40.7761 -75.4269 260° West 372 428 28,500 1,680 Climbing New York Center
01:02PM 40.7561 -75.5625 259° West 372 428 29,900 1,260 Climbing New York Center
01:03PM 40.7378 -75.7008 260° West 372 428 31,000 960 Climbing New York Center
01:04PM 40.7242 -75.8286 262° West 392 451 31,900 960 Climbing New York Center
01:05PM 40.6964 -75.9881 257° West 399 459 33,000 1,320 Climbing New York Center
01:06PM 40.6792 -76.1400 262° West 414 476 34,600 1,680 Climbing New York Center
01:07PM 40.6706 -76.2844 266° West 408 470 36,400 1,560 Climbing New York Center
01:08PM 40.6908 -76.4228 281° West 396 456 37,800 1,080 Climbing New York Center
01:09PM 40.7094 -76.5586 280° West 391 450 38,600 780 Climbing New York Center
01:10PM 40.7317 -76.7003 282° West 391 450 39,400 600 Climbing New York Center
01:11PM 40.7517 -76.8389 281° West 391 450 39,900 600 Climbing New York Center
01:12PM 40.7714 -76.9806 280° West 396 456 40,700 660 Climbing New York Center
01:13PM 40.7931 -77.1222 281° West 396 456 41,300 600 Climbing New York Center
01:14PM 40.8128 -77.2583 281° West 396 456 41,900 420 Climbing New York Center
01:15PM 40.8325 -77.3919 281° West 391 450 42,200 240 Climbing New York Center
01:16PM 40.8517 -77.5311 280° West 391 450 42,500 300 Climbing New York Center
01:17PM 40.8778 -77.7217 280° West 409 471 43,000 180 Climbing Cleveland Center
01:18PM 40.8978 -77.8636 281° West 409 471 43,000  Level Cleveland Center
01:19PM 40.9158 -78.0056 280° West 409 471 43,000  Level Cleveland Center
01:20PM 40.9356 -78.1533 280° West 409 471 43,000  Level Cleveland Center
01:21PM 40.9575 -78.3011 281° West 409 471 43,000  Level Cleveland Center
01:22PM 40.9728 -78.4464 278° West 409 471 43,000  Level Cleveland Center
01:23PM 40.9922 -78.5942 280° West 409 471 43,000  Level Cleveland Center
01:24PM 41.0092 -78.7422 279° West 409 471 43,000  Level Cleveland Center
01:25PM 41.0283 -78.8931 280° West 409 471 43,000  Level Cleveland Center
01:26PM 41.0450 -79.0414 279° West 415 478 43,000  Level Cleveland Center
01:27PM 41.0614 -79.1953 278° West 420 483 43,000  Level Cleveland Center
01:28PM 41.0800 -79.3464 279° West 420 483 43,000  Level Cleveland Center
01:29PM 41.0961 -79.4947 278° West 420 483 43,000  Level Cleveland Center
01:30PM 41.1119 -79.6461 278° West 420 483 43,000  Level Cleveland Center
01:31PM 41.1275 -79.7975 278° West 420 483 43,000  Level Cleveland Center
01:32PM 41.1411 -79.9353 278° West 427 491 43,000  Level Cleveland Center
01:33PM 41.1628 -80.0978 280° West 421 484 43,000  Level Cleveland Center
01:34PM 41.1778 -80.2467 278° West 421 484 43,000  Level Cleveland Center
01:35PM 41.1906 -80.3983 276° West 416 479 43,000  Level Cleveland Center
01:36PM 41.2053 -80.5500 277° West 416 479 43,000  Level Cleveland Center
01:37PM 41.2200 -80.6992 278° West 416 479 43,000  Level Cleveland Center
01:38PM 41.2342 -80.8481 277° West 416 479 43,000  Level Cleveland Center
01:39PM 41.2506 -81.0003 278° West 416 479 43,000  Level Cleveland Center
01:40PM 41.2625 -81.1328 277° West 411 473 43,000  Level Cleveland Center
01:41PM 41.2761 -81.2794 277° West 411 473 43,000  Level Cleveland Center
01:42PM 41.2939 -81.4261 279° West 400 460 43,000  Level Cleveland Center
01:43PM 41.3075 -81.5728 277° West 400 460 43,000  Level Cleveland Center
01:44PM 41.3228 -81.7222 278° West 405 466 43,000  Level Cleveland Center
01:45PM 41.3336 -81.8661 276° West 405 466 43,000  Level Cleveland Center
01:46PM 41.3486 -82.0158 278° West 405 466 43,000  Level Cleveland Center
01:47PM 41.3569 -82.1683 274° West 410 472 43,000  Level Cleveland Center
01:48PM 41.3778 -82.3156 281° West 410 472 43,000  Level Cleveland Center
01:49PM 41.3964 -82.4597 280° West 410 472 43,000  Level Cleveland Center
01:50PM 41.4147 -82.6100 279° West 410 472 43,000  Level Cleveland Center
01:51PM 41.4181 -82.7567 272° West 405 466 43,000  Level Cleveland Center
01:52PM 41.4236 -82.9036 273° West 405 466 43,000  Level Cleveland Center
01:53PM 41.4267 -83.0533 272° West 405 466 43,000  Level Cleveland Center
01:54PM 41.4278 -83.1975 271° West 399 459 43,000  Level Cleveland Center
01:55PM 41.4283 -83.3417 270° West 399 459 43,000  Level Cleveland Center
01:56PM 41.4311 -83.4883 271° West 399 459 43,000  Level Cleveland Center
01:57PM 41.4356 -83.6328 272° West 399 459 43,000  Level Cleveland Center
01:58PM 41.4400 -83.7797 272° West 404 465 43,000  Level Cleveland Center
01:59PM 41.4464 -83.9214 273° West 404 465 43,000  Level Cleveland Center
02:00PM 41.4569 -84.0522 276° West 393 452 43,000  Level Chicago Center
02:01PM 41.4631 -84.1981 273° West 395 455 43,000  Level Chicago Center
02:02PM 41.4692 -84.3444 273° West 396 456 43,000  Level Chicago Center
02:03PM 41.4764 -84.5197 273° West 394 453 43,000  Level Chicago Center
02:04PM 41.4814 -84.6656 273° West 395 455 43,000  Level Chicago Center
02:05PM 41.4872 -84.8094 273° West 393 452 43,000  Level Chicago Center
02:06PM 41.4922 -84.9550 273° West 392 451 43,000  Level Chicago Center
02:07PM 41.4969 -85.0989 273° West 389 448 43,000  Level Chicago Center
02:08PM 41.5014 -85.2456 272° West 393 452 43,000  Level Chicago Center
02:09PM 41.5053 -85.3922 272° West 391 450 43,000  Level Chicago Center
02:10PM 41.5103 -85.5436 273° West 399 459 43,000  Level Chicago Center
02:12PM 41.5164 -85.7186 273° West 393 452 43,000  Level Chicago Center
02:13PM 41.5203 -85.8653 272° West 395 455 43,000  Level Chicago Center
02:14PM 41.5239 -86.0108 272° West 398 458 43,000  Level Chicago Center
02:15PM 41.5269 -86.1572 272° West 398 458 43,000  Level Chicago Center
02:16PM 41.5303 -86.3047 272° West 400 460 43,000  Level Chicago Center
02:17PM 41.5319 -86.4511 271° West 396 456 43,000  Level Chicago Center
02:18PM 41.5342 -86.5992 271° West 398 458 43,000  Level Chicago Center
02:19PM 41.5369 -86.7700 271° West 390 449 43,000  Level Chicago Center
02:20PM 41.5389 -86.9172 271° West 396 456 43,000  Level Chicago Center
02:21PM 41.5406 -87.0636 271° West 396 456 43,000  Level Chicago Center
02:22PM 41.5428 -87.2106 271° West 398 458 43,000  Level Chicago Center
02:23PM 41.5442 -87.3869 271° West 399 459 43,000  Level Chicago Center
02:24PM 41.5444 -87.5331 270° West 397 457 43,000  Level Chicago Center
02:25PM 41.5450 -87.6806 270° West 398 458 43,000  Level Chicago Center
02:26PM 41.5461 -87.8278 271° West 401 461 43,000  Level Chicago Center
02:27PM 41.5475 -88.0056 271° West 408 470 43,000  Level Chicago Center
02:28PM 41.5478 -88.1533 270° West 412 474 43,000  Level Chicago Center
02:29PM 41.5475 -88.3036 270° West 413 475 43,000  Level Chicago Center
02:30PM 41.5481 -88.4533 270° West 409 471 43,000  Level Chicago Center
02:31PM 41.5475 -88.6331 270° West 409 471 43,000  Level Chicago Center
02:32PM 41.5486 -88.7858 271° West 414 476 43,000  Level Chicago Center
02:33PM 41.5489 -88.9367 270° West 411 473 43,000  Level Chicago Center
02:34PM 41.5481 -89.0897 270° West 415 478 43,000  Level Chicago Center
02:35PM 41.5489 -89.2419 270° West 414 476 43,000  Level Chicago Center
02:36PM 41.5500 -89.4217 271° West 409 471 43,000  Level Chicago Center
02:37PM 41.5497 -89.5714 270° West 409 471 43,000  Level Chicago Center
02:38PM 41.5483 -89.7256 269° West 414 476 43,000  Level Chicago Center
02:39PM 41.5464 -89.8775 269° West 413 475 43,000  Level Chicago Center
02:40PM 41.5456 -90.0281 270° West 410 472 43,000  Level Chicago Center
02:41PM 41.5436 -90.1797 269° West 410 472 43,000  Level Chicago Center
02:43PM 41.5419 -90.3636 269° West 414 476 43,000  Level Chicago Center
02:44PM 41.5392 -90.5144 269° West 410 472 43,000  Level Chicago Center
02:45PM 41.5372 -90.6608 269° West 412 474 43,000  Level Chicago Center
02:46PM 41.5342 -90.8136 269° West 415 478 43,000  Level Chicago Center
02:47PM 41.5317 -90.9978 269° West 417 480 43,000  Level Chicago Center
02:48PM 41.5286 -91.1517 269° West 417 480 43,000  Level Chicago Center
02:49PM 41.5256 -91.3039 269° West 414 476 43,000  Level Chicago Center
02:50PM 41.5222 -91.4567 268° West 413 475 43,000  Level Chicago Center
02:51PM 41.5203 -91.6083 269° West 411 473 43,000  Level Chicago Center
02:52PM 41.5031 -91.7853 263° West 404 465 43,000  Level Chicago Center
02:53PM 41.4897 -91.9372 263° West 410 472 43,000  Level Chicago Center
02:54PM 41.4747 -92.0850 262° West 405 466 43,000 -60 Level Chicago Center
02:55PM 41.4611 -92.2347 263° West 408 470 42,900 -840 Descending Chicago Center
02:56PM 41.4558 -92.3811 267° West 400 460 41,300 -1,560 Descending Chicago Center
02:57PM 41.4672 -92.5256 276° West 381 438 39,700 -1,560 Descending Chicago Center
02:58PM 41.4808 -92.6589 278° West 369 425 38,100 -1,080 Descending Chicago Center
02:59PM 41.4647 -92.7556 257° West 348 400 38,000 -120 Descending Minneapolis Center
03:00PM 41.4375 -92.8858 254° West 364 419 38,000  Level Minneapolis Center
03:01PM 41.4186 -93.0214 260° West 372 428 38,000  Level Minneapolis Center
03:02PM 41.3903 -93.2211 259° West 392 451 38,000  Level Minneapolis Center
03:03PM 41.3689 -93.3658 259° West 401 461 38,000  Level Minneapolis Center
03:04PM 41.3478 -93.5094 259° West 400 460 38,000  Level Minneapolis Center
03:05PM 41.3286 -93.6447 259° West 386 444 38,000  Level Minneapolis Center
03:06PM 41.3075 -93.7853 259° West 388 447 38,000  Level Minneapolis Center
03:07PM 41.2819 -93.9544 259° West 392 451 38,000  Level Minneapolis Center
03:08PM 41.2528 -94.1253 257° West 395 455 38,000  Level Minneapolis Center
03:09PM 41.2336 -94.2617 259° West 390 449 38,000  Level Minneapolis Center
03:11PM 41.2131 -94.4011 259° West 386 444 38,000  Level Minneapolis Center
03:12PM 41.1903 -94.5419 258° West 388 447 38,000  Level Minneapolis Center
03:13PM 41.1633 -94.7094 258° West 388 447 38,000  Level Minneapolis Center
03:14PM 41.1403 -94.8500 258° West 390 449 38,000  Level Minneapolis Center
03:15PM 41.1178 -94.9908 258° West 390 449 38,000  Level Minneapolis Center
03:16PM 41.0942 -95.1317 258° West 391 450 38,000  Level Minneapolis Center
03:17PM 41.0700 -95.2731 257° West 392 451 38,000  Level Minneapolis Center
03:18PM 41.0458 -95.4150 257° West 393 452 38,000  Level Minneapolis Center
03:19PM 41.0169 -95.5867 257° West 396 456 38,000  Level Minneapolis Center
03:20PM 40.9925 -95.7300 257° West 396 456 38,000  Level Minneapolis Center
03:21PM 40.9675 -95.8753 257° West 400 460 38,000  Level Minneapolis Center
03:22PM 40.9431 -96.0214 258° West 403 464 38,000  Level Minneapolis Center
03:23PM 40.9172 -96.1672 257° West 404 465 38,000  Level Minneapolis Center
03:24PM 40.8922 -96.3139 257° West 406 467 38,000  Level Minneapolis Center
03:25PM 40.8667 -96.4611 257° West 408 470 38,000  Level Minneapolis Center
03:26PM 40.8411 -96.6061 257° West 407 468 38,000  Level Minneapolis Center
03:27PM 40.8083 -96.7806 256° West 406 467 38,000  Level Minneapolis Center
03:28PM 40.7831 -96.9269 257° West 408 470 38,000  Level Minneapolis Center
03:29PM 40.7561 -97.0714 256° West 406 467 38,000  Level Minneapolis Center
03:30PM 40.7303 -97.2144 257° West 404 465 38,000  Level Minneapolis Center
03:31PM 40.7033 -97.3611 256° West 404 465 38,000  Level Minneapolis Center
03:32PM 40.6764 -97.5036 256° West 402 463 38,000  Level Minneapolis Center
03:33PM 40.6494 -97.6456 256° West 400 460 38,000  Level Minneapolis Center
03:34PM 40.6225 -97.7881 256° West 400 460 38,000 180 Level Minneapolis Center
03:35PM 40.5900 -97.9594 256° West 401 461 38,400 720 Climbing Minneapolis Center
03:36PM 40.5631 -98.1011 256° West 399 459 39,500 960 Climbing Minneapolis Center
03:37PM 40.5364 -98.2419 256° West 397 457 40,500 960 Climbing Minneapolis Center
03:38PM 40.5089 -98.3825 256° West 396 456 41,500 960 Climbing Minneapolis Center
03:39PM 40.4822 -98.5200 256° West 389 448 42,500 720 Climbing Minneapolis Center
03:40PM 40.4556 -98.6547 255° West 383 441 43,000 240 Climbing Minneapolis Center
03:41PM 40.4275 -98.7936 255° West 388 447 43,000  Level Minneapolis Center
03:43PM 40.3997 -98.9367 256° West 398 458 43,000  Level Minneapolis Center
03:44PM 40.3647 -99.1058 255° West 399 459 43,000  Level Minneapolis Center
03:44PM 40.3422 -99.2189 255° West 398 458 43,000  Level Denver Center
03:46PM 40.3136 -99.3594 255° West 399 459 43,000  Level Denver Center
03:47PM 40.2786 -99.5269 255° West 396 456 43,000  Level Denver Center
03:48PM 40.2503 -99.6672 255° West 398 458 43,000  Level Denver Center
03:49PM 40.2211 -99.8064 255° West 396 456 43,000  Level Denver Center
03:50PM 40.1889 -99.9614 255° West 396 456 43,000  Level Denver Center
03:51PM 40.1603 -100.0928 254° West 393 452 43,000  Level Denver Center
03:52PM 40.1269 -100.2517 255° West 402 463 43,000  Level Denver Center
03:53PM 40.0981 -100.3839 254° West 397 457 43,000  Level Denver Center
03:54PM 40.0697 -100.5175 255° West 398 458 43,000  Level Denver Center
03:55PM 40.0356 -100.6731 254° West 397 457 43,000  Level Denver Center
03:56PM 40.0064 -100.8083 254° West 403 464 43,000  Level Denver Center
03:57PM 39.9725 -100.9647 254° West 401 461 43,000  Level Denver Center
03:58PM 39.9419 -101.0978 253° West 399 459 43,000  Level Denver Center
03:59PM 39.9128 -101.2325 254° West 402 463 43,000  Level Denver Center
04:00PM 39.8778 -101.3883 254° West 401 461 43,000  Level Denver Center
04:01PM 39.8369 -101.5661 253° West 402 463 43,000  Level Denver Center
04:02PM 39.8064 -101.7014 254° West 405 466 43,000  Level Denver Center
04:03PM 39.7764 -101.8350 254° West 403 464 43,000  Level Denver Center
04:04PM 39.7403 -101.9931 253° West 408 470 43,000  Level Denver Center
04:05PM 39.7092 -102.1267 253° West 405 466 43,000  Level Denver Center
04:06PM 39.6728 -102.2825 253° West 403 464 43,000  Level Denver Center
04:07PM 39.6408 -102.4169 253° West 407 468 43,000  Level Denver Center
04:08PM 39.6050 -102.5703 253° West 406 467 43,000  Level Denver Center
04:09PM 39.5722 -102.7097 253° West 406 467 43,000  Level Denver Center
04:11PM 39.5378 -102.8483 252° West 405 466 43,000  Level Denver Center
04:12PM 39.5044 -102.9886 253° West 408 470 43,000  Level Denver Center
04:13PM 39.4719 -103.1275 253° West 404 465 43,000  Level Denver Center
04:14PM 39.4372 -103.2664 252° West 407 468 43,000  Level Denver Center
04:15PM 39.3953 -103.4331 252° West 407 468 43,000  Level Denver Center
04:16PM 39.3614 -103.5742 253° West 410 472 43,000  Level Denver Center
04:17PM 39.3256 -103.7153 252° West 412 474 43,000  Level Denver Center
04:18PM 39.2908 -103.8569 252° West 414 476 43,000  Level Denver Center
04:19PM 39.2550 -103.9975 252° West 414 476 43,000 120 Level Denver Center
04:20PM 39.2186 -104.1406 252° West 418 481 43,300 900 Climbing Denver Center
04:21PM 39.1839 -104.2792 252° West 409 471 44,900 780 Climbing Denver Center
04:22PM 39.1500 -104.4125 252° West 393 452 45,000  Climbing Denver Center
04:23PM 39.1142 -104.5503 252° West 400 460 45,000  Level Denver Center
04:24PM 39.0703 -104.7200 252° West 413 475 45,000  Level Denver Center
04:25PM 39.0350 -104.8589 252° West 409 471 45,000  Level Denver Center
04:26PM 38.9975 -105.0006 251° West 413 475 45,000  Level Denver Center
04:27PM 38.9608 -105.1400 251° West 414 476 45,000  Level Denver Center
04:28PM 38.9242 -105.2792 251° West 412 474 45,000  Level Denver Center
04:29PM 38.8869 -105.4175 251° West 410 472 45,000  Level Denver Center
04:30PM 38.8436 -105.5839 252° West 410 472 45,000  Level Denver Center
04:31PM 38.8056 -105.7219 251° West 410 472 45,000  Level Denver Center
04:32PM 38.7692 -105.8592 251° West 407 468 45,000  Level Denver Center
04:33PM 38.7317 -105.9972 251° West 410 472 45,000  Level Denver Center
04:34PM 38.6944 -106.1336 251° West 407 468 45,000  Level Denver Center
04:35PM 38.6550 -106.2747 250° West 410 472 45,000  Level Denver Center
04:36PM 38.6169 -106.4119 250° West 410 472 45,000  Level Denver Center
04:37PM 38.5783 -106.5506 250° West 411 473 45,000  Level Denver Center
04:38PM 38.5400 -106.6889 251° West 410 472 45,000  Level Denver Center
04:39PM 38.4944 -106.8503 250° West 401 461 45,000  Level Denver Center
04:40PM 38.4569 -106.9819 250° West 396 456 45,000  Level Denver Center
04:41PM 38.4192 -107.1133 250° West 392 451 45,000  Level Denver Center
04:43PM 38.3797 -107.2561 251° West 392 451 45,000  Level Denver Center
04:44PM 38.3431 -107.3831 250° West 397 457 45,000  Level Denver Center
04:45PM 38.3308 -107.5400 264° West 403 464 45,000  Level Denver Center
04:46PM 38.3261 -107.6789 268° West 405 466 45,100  Climbing Denver Center
04:47PM 38.3192 -107.8439 267° West 414 476 45,000 -60 Descending Denver Center
04:48PM 38.3131 -107.9839 267° West 415 478 45,000  Level Denver Center
04:49PM 38.3081 -108.1256 267° West 416 479 45,000  Level Denver Center
04:50PM 38.3028 -108.2906 268° West 417 480 45,000  Level Denver Center
04:51PM 38.2906 -108.4297 264° West 419 482 45,000  Level Denver Center
04:52PM 38.2256 -108.5697 239° Southwest 410 472 45,000  Level Denver Center
04:53PM 38.1628 -108.6869 236° Southwest 416 479 45,000  Level Denver Center
04:54PM 38.0906 -108.8197 235° Southwest 410 472 45,000  Level Denver Center
04:55PM 38.0275 -108.9339 235° Southwest 408 470 45,000  Level Denver Center
04:56PM 37.9553 -109.0689 236° Southwest 413 475 45,000  Level Denver Center
04:57PM 37.8931 -109.1842 236° Southwest 414 476 45,000  Level Denver Center
04:58PM 37.8092 -109.3353 235° Southwest 412 474 45,000  Level Denver Center
04:59PM 37.7469 -109.4489 235° Southwest 412 474 45,000  Level Denver Center
05:00PM 37.6744 -109.5797 235° Southwest 409 471 45,000  Level Denver Center
05:01PM 37.6117 -109.6931 235° Southwest 412 474 45,000  Level Denver Center
05:03PM 37.5386 -109.8253 235° Southwest 413 475 45,000  Level Denver Center
05:04PM 37.4556 -109.9739 235° Southwest 411 473 45,000  Level Denver Center
05:05PM 37.4036 -110.0681 235° Southwest 413 475 45,000  Level Denver Center
05:06PM 37.3269 -110.2039 235° Southwest 414 476 45,000  Level Denver Center
05:07PM 37.2472 -110.3433 234° Southwest 409 471 45,000  Level Denver Center
05:08PM 37.1669 -110.4853 235° Southwest 416 479 45,000  Level Denver Center
05:09PM 37.1008 -110.6011 234° Southwest 412 474 45,000  Level Denver Center
05:10PM 37.0350 -110.7172 235° Southwest 408 470 45,000  Level Denver Center
05:11PM 36.9678 -110.8339 234° Southwest 412 474 45,000  Level Denver Center
05:12PM 36.9011 -110.9514 235° Southwest 414 476 45,000  Level Denver Center
05:13PM 36.8347 -111.0650 234° Southwest 407 468 45,000  Level Denver Center
05:14PM 36.7686 -111.1811 235° Southwest 408 470 45,000  Level Denver Center
05:15PM 36.6867 -111.3214 234° Southwest 414 476 45,000  Level Denver Center
05:16PM 36.6181 -111.4381 234° Southwest 417 480 45,000  Level Denver Center
05:17PM 36.5511 -111.5531 234° Southwest 412 474 45,000  Level Denver Center
05:18PM 36.4847 -111.6672 234° Southwest 409 471 45,000  Level Denver Center
05:19PM 36.4164 -111.7833 234° Southwest 412 474 45,000  Level Denver Center
05:20PM 36.3467 -111.8972 233° Southwest 413 475 45,000  Level Los Angeles Center
05:21PM 36.2794 -112.0128 234° Southwest 413 475 45,000  Level Los Angeles Center
05:22PM 36.2108 -112.1258 233° Southwest 411 473 45,000  Level Los Angeles Center
05:23PM 36.1428 -112.2433 234° Southwest 412 474 45,000  Level Los Angeles Center
05:24PM 36.0619 -112.3761 233° Southwest 408 470 45,000  Level Los Angeles Center
05:25PM 35.9942 -112.4900 234° Southwest 410 472 45,000  Level Los Angeles Center
05:27PM 35.9247 -112.6042 233° Southwest 415 478 45,000  Level Los Angeles Center
05:28PM 35.8567 -112.7172 233° Southwest 416 479 45,000  Level Los Angeles Center
05:29PM 35.7886 -112.8303 233° Southwest 415 478 45,000  Level Los Angeles Center
05:30PM 35.7075 -112.9656 234° Southwest 415 478 45,000  Level Los Angeles Center
05:31PM 35.6378 -113.0764 232° Southwest 416 479 45,000  Level Los Angeles Center
05:32PM 35.5681 -113.1894 233° Southwest 414 476 45,000 -120 Level Los Angeles Center
05:33PM 35.5028 -113.3014 234° Southwest 419 482 44,800 -540 Descending Los Angeles Center
05:34PM 35.4231 -113.4272 232° Southwest 400 460 44,000 -840 Descending Los Angeles Center
05:35PM 35.3578 -113.5314 232° Southwest 391 450 43,100 -1,020 Descending Los Angeles Center
05:36PM 35.2936 -113.6347 233° Southwest 386 444 41,900 -1,320 Descending Los Angeles Center
05:37PM 35.2289 -113.7406 233° Southwest 390 449 40,400 -1,620 Descending Los Angeles Center
05:38PM 35.1494 -113.8664 232° Southwest 392 451 38,600 -1,200 Descending Los Angeles Center
05:39PM 35.0886 -113.9625 232° Southwest 394 453 38,000 -300 Descending Los Angeles Center
05:40PM 35.0083 -114.0908 233° Southwest 395 455 38,000  Level Los Angeles Center
05:41PM 34.9397 -114.1986 232° Southwest 399 459 38,000 -480 Level Los Angeles Center
05:42PM 34.8906 -114.3214 244° Southwest 409 471 37,000 -1,260 Descending Los Angeles Center
05:43PM 34.8819 -114.4608 266° West 410 472 35,400 -1,500 Descending Los Angeles Center
05:44PM 34.8775 -114.6003 268° West 411 473 34,000 -720 Descending Los Angeles Center
05:45PM 34.8731 -114.7406 268° West 415 478 34,000  Level Los Angeles Center
05:46PM 34.8678 -114.8856 268° West 426 490 34,000  Level Los Angeles Center
05:47PM 34.8608 -115.0586 267° West 426 490 34,000  Level Los Angeles Center
05:48PM 34.8553 -115.2006 267° West 422 486 34,000  Level Los Angeles Center
05:49PM 34.8489 -115.3403 267° West 416 479 34,000  Level Los Angeles Center
05:50PM 34.8431 -115.4831 267° West 419 482 34,000  Level Los Angeles Center
05:51PM 34.8372 -115.6269 267° West 422 486 34,000  Level Los Angeles Center
05:52PM 34.8308 -115.7694 267° West 424 488 34,000 -60 Level Los Angeles Center
05:53PM 34.8256 -115.9094 267° West 418 481 33,900 -1,500 Descending Los Angeles Center
05:54PM 34.8158 -116.0792 266° West 419 482 31,000 -3,000 Descending Los Angeles Center
05:55PM 34.8067 -116.2197 265° West 419 482 27,800 -3,420 Descending Los Angeles Center
05:57PM 34.8042 -116.3531 269° West 404 465 24,000 -3,300 Descending Los Angeles Center
05:58PM 34.7972 -116.4825 266° West 390 449 21,100 -1,980 Descending Los Angeles Center
05:59PM 34.7842 -116.6050 263° West 370 426 20,000 -540 Descending Los Angeles Center
06:00PM 34.7719 -116.7269 263° West 364 419 20,000  Level Los Angeles Center
06:01PM 34.7567 -116.8742 263° West 365 420 20,000  Level Los Angeles Center
06:02PM 34.7442 -116.9981 263° West 368 423 20,000  Level Los Angeles Center
06:03PM 34.7311 -117.1214 263° West 368 423 20,000  Level Los Angeles Center
06:04PM 34.7172 -117.2461 262° West 371 427 20,000  Level Los Angeles Center
06:05PM 34.7047 -117.3719 263° West 372 428 20,000  Level Los Angeles Center
06:06PM 34.6914 -117.4981 263° West 374 430 20,000 -780 Level Los Angeles Center
06:07PM 34.6783 -117.6242 263° West 374 430 18,500 -2,160 Descending Los Angeles Center
06:08PM 34.6558 -117.7783 260° West 383 441 15,600 -2,280 Descending Los Angeles Center
06:09PM 34.6236 -117.8886 250° West 349 402 13,800 -1,680 Descending Los Angeles Center
06:10PM 34.5939 -117.9906 251° West 323 372 12,200 -1,560 Descending Los Angeles Center
06:11PM 34.5647 -118.0889 250° West 309 356 10,600 -1,560 Descending Los Angeles Center
06:12PM 34.5344 -118.1878 250° West 286 329 9,000 -1,320 Descending Los Angeles Center
06:13PM 34.5014 -118.2744 245° Southwest 285 328 7,900 -540 Descending Los Angeles Center
06:14PM 34.4553 -118.3475 233° Southwest 274 315 7,900  Level Los Angeles Center
06:15PM 34.3972 -118.4031 218° Southwest 279 321 7,900 -240 Level Los Angeles Center
06:16PM 34.3125 -118.3617 158° South 271 312 7,500 -780 Descending Los Angeles Center
06:17PM 34.2478 -118.3247 155° Southeast 262 302 6,400 -780 Descending Los Angeles Center
06:18PM 34.1894 -118.2886 153° Southeast 250 288 6,000 -540 Descending Los Angeles Center
06:19PM 34.1347 -118.3000 190° South 234 269 5,400 -1,140 Descending Los Angeles Center
06:20PM 34.0989 -118.3450 226° Southwest 198 228 3,700 -1,440 Descending Los Angeles Center
06:21PM 34.0681 -118.3844 227° Southwest 174 200 2,500 -1,320 Descending Los Angeles Center
06:22PM 34.0422 -118.4225 231° Southwest 132 152 1,000 -1,140 Descending Los Angeles Center
06:23PM 34.0208 -118.4514 228° Southwest 145 167 200 -780 Descending Los Angeles Center
06:25PM 34.0158 -118.4513 244° Southwest  Level Estimated
06:32PM 34.0158 -118.4513 244° Southwest  Level Estimated